Time;durP1;ratioP1;P1;durP2;ratioP2;P2;SDS_P1;SDS_P2;PMS_P1;PMS_P2;Temp;Humidity;BMP_temperature;BMP_pressure;BME280_temperature;BME280_humidity;BME280_pressure;Samples;Min_cycle;Max_cycle;Signal;HPM_P1;HPM_P2
2021/12/11 00:02:23;;;;;;;15.87;9.13;;;9.80;93.70;;;;;;5116673;27;20204;-80
2021/12/11 00:04:56;;;;;;;16.50;9.57;;;9.70;93.40;;;;;;5123653;27;20724;-79
2021/12/11 00:07:27;;;;;;;16.83;8.87;;;9.80;93.40;;;;;;5113888;27;20669;-79
2021/12/11 00:10:00;;;;;;;17.37;10.03;;;9.80;93.40;;;;;;5122972;27;20177;-79
2021/12/11 00:12:31;;;;;;;17.60;9.40;;;9.80;93.40;;;;;;5115654;27;20621;-80
2021/12/11 00:15:05;;;;;;;19.00;10.67;;;9.90;93.40;;;;;;5109975;27;20176;-79
2021/12/11 00:17:35;;;;;;;17.30;9.70;;;9.90;93.30;;;;;;5130657;27;20199;-80
2021/12/11 00:20:10;;;;;;;16.10;10.07;;;9.90;93.40;;;;;;5125653;27;20756;-79
2021/12/11 00:22:42;;;;;;;19.63;10.40;;;9.90;93.40;;;;;;5115258;27;20185;-79
2021/12/11 00:25:13;;;;;;;16.50;9.70;;;9.90;93.30;;;;;;5123924;27;20293;-79
2021/12/11 00:27:44;;;;;;;20.70;11.23;;;9.90;93.30;;;;;;5115459;27;20444;-79
2021/12/11 00:30:21;;;;;;;18.33;10.77;;;10.00;93.40;;;;;;5120205;27;20189;-79
2021/12/11 00:32:49;;;;;;;17.27;10.13;;;9.90;93.30;;;;;;5123941;27;20610;-80
2021/12/11 00:35:20;;;;;;;18.20;10.20;;;10.00;93.30;;;;;;5116935;27;20221;-80
2021/12/11 00:37:49;;;;;;;18.80;10.43;;;10.00;93.30;;;;;;5116326;27;20831;-80
2021/12/11 00:40:24;;;;;;;19.23;10.97;;;10.00;93.30;;;;;;5113785;27;20212;-79
2021/12/11 00:42:56;;;;;;;17.67;10.40;;;9.90;93.20;;;;;;5115497;27;20200;-79
2021/12/11 00:45:31;;;;;;;21.30;11.17;;;10.00;93.20;;;;;;5114594;27;20200;-79
2021/12/11 00:48:02;;;;;;;19.13;11.87;;;10.00;93.30;;;;;;5112768;27;20836;-79
2021/12/11 00:50:34;;;;;;;18.80;11.13;;;10.00;93.30;;;;;;5116294;27;20185;-79
2021/12/11 00:53:10;;;;;;;18.13;11.77;;;10.10;93.30;;;;;;5119548;27;20653;-79
2021/12/11 00:55:41;;;;;;;18.10;10.63;;;10.10;93.20;;;;;;5122511;27;20200;-78
2021/12/11 00:58:13;;;;;;;18.50;10.67;;;10.20;93.10;;;;;;5116629;27;20188;-78
2021/12/11 01:00:45;;;;;;;20.47;11.20;;;10.20;93.00;;;;;;5117686;27;20209;-78
2021/12/11 01:03:21;;;;;;;21.23;10.33;;;10.20;93.10;;;;;;5113687;27;20222;-79
2021/12/11 01:05:53;;;;;;;20.40;11.00;;;10.20;92.80;;;;;;5116860;27;20180;-78
2021/12/11 01:08:28;;;;;;;17.93;10.33;;;10.20;92.80;;;;;;5113791;27;20196;-78
2021/12/11 01:11:06;;;;;;;19.40;10.30;;;10.20;92.80;;;;;;5113881;27;20274;-78
2021/12/11 01:13:43;;;;;;;18.43;11.17;;;10.20;92.70;;;;;;5125886;27;20198;-78
2021/12/11 01:16:14;;;;;;;21.13;10.93;;;10.30;92.70;;;;;;5111064;27;20196;-78
2021/12/11 01:18:46;;;;;;;19.33;10.73;;;10.30;92.60;;;;;;5106671;27;20591;-78
2021/12/11 01:21:34;;;;;;;22.17;10.73;;;10.30;92.50;;;;;;5118167;27;20238;-79
2021/12/11 01:24:14;;;;;;;16.83;10.00;;;10.30;92.50;;;;;;5110676;27;20199;-78
2021/12/11 01:26:49;;;;;;;18.83;10.47;;;10.30;92.40;;;;;;5121029;27;20195;-78
2021/12/11 01:29:19;;;;;;;18.20;10.73;;;10.30;92.40;;;;;;5105936;27;20196;-78
2021/12/11 01:31:49;;;;;;;19.47;10.77;;;10.30;92.40;;;;;;5110446;27;20193;-79
2021/12/11 01:34:18;;;;;;;20.00;10.93;;;10.30;92.40;;;;;;5121268;27;20836;-78
2021/12/11 01:36:47;;;;;;;18.13;10.13;;;10.30;92.50;;;;;;5126572;27;20196;-78
2021/12/11 01:39:19;;;;;;;18.33;9.90;;;10.30;92.50;;;;;;5110780;27;20715;-78
2021/12/11 01:41:51;;;;;;;23.13;10.93;;;10.30;92.40;;;;;;5110436;27;20229;-79
2021/12/11 01:44:22;;;;;;;19.10;10.57;;;10.30;92.30;;;;;;5113715;27;20241;-78
2021/12/11 01:46:50;;;;;;;20.37;10.43;;;10.30;92.20;;;;;;5115050;27;20196;-78
2021/12/11 01:49:22;;;;;;;22.30;10.97;;;10.30;92.20;;;;;;5111306;27;20196;-78
2021/12/11 01:51:54;;;;;;;24.70;11.83;;;10.20;92.20;;;;;;5117764;27;20185;-77
2021/12/11 01:54:25;;;;;;;20.53;10.90;;;10.30;92.20;;;;;;5110738;27;20501;-78
2021/12/11 01:57:00;;;;;;;21.20;11.07;;;10.30;92.20;;;;;;5119083;27;20193;-78
2021/12/11 01:59:33;;;;;;;26.10;11.97;;;10.20;92.20;;;;;;5114033;27;20188;-77
2021/12/11 02:02:06;;;;;;;25.60;11.83;;;10.20;92.20;;;;;;5118786;27;20278;-78
2021/12/11 02:04:37;;;;;;;23.70;11.87;;;10.20;92.30;;;;;;5111081;28;20710;-78
2021/12/11 02:07:12;;;;;;;23.20;11.47;;;10.20;92.30;;;;;;5108929;27;20242;-78
2021/12/11 02:09:44;;;;;;;22.07;11.17;;;10.10;92.20;;;;;;5121489;28;20236;-77
2021/12/11 02:12:19;;;;;;;21.53;11.30;;;10.10;92.20;;;;;;5108127;28;20192;-78
2021/12/11 02:14:53;;;;;;;23.87;11.93;;;10.10;92.30;;;;;;5118058;27;20199;-78
2021/12/11 02:17:24;;;;;;;22.13;12.27;;;10.10;92.30;;;;;;5108274;28;20203;-78
2021/12/11 02:19:55;;;;;;;25.00;11.93;;;10.00;92.20;;;;;;5116289;27;20189;-78
2021/12/11 02:22:27;;;;;;;24.83;12.80;;;10.00;92.20;;;;;;5108513;27;20869;-77
2021/12/11 02:24:59;;;;;;;24.47;12.87;;;10.00;92.20;;;;;;5111613;27;20551;-78
2021/12/11 02:27:31;;;;;;;21.93;12.00;;;10.00;92.30;;;;;;5114288;27;20197;-78
2021/12/11 02:30:15;;;;;;;26.63;11.50;;;9.90;92.20;;;;;;5112044;27;20199;-77
2021/12/11 02:32:49;;;;;;;35.10;11.93;;;9.90;92.10;;;;;;5112400;27;20193;-78
2021/12/11 02:35:22;;;;;;;40.67;11.83;;;9.80;92.00;;;;;;5114228;27;20224;-77
2021/12/11 02:37:56;;;;;;;35.23;11.70;;;9.70;92.00;;;;;;5113242;27;20196;-77
2021/12/11 02:40:29;;;;;;;31.53;11.53;;;9.70;92.00;;;;;;5114622;27;20188;-78
2021/12/11 02:43:03;;;;;;;29.33;11.53;;;9.60;92.00;;;;;;5108492;27;20201;-78
2021/12/11 02:45:37;;;;;;;21.43;10.97;;;9.60;92.10;;;;;;5110640;27;20204;-78
2021/12/11 02:48:10;;;;;;;26.43;10.80;;;9.60;92.20;;;;;;5114507;27;20216;-78
2021/12/11 02:50:46;;;;;;;28.17;10.27;;;9.50;92.20;;;;;;5114781;28;20731;-77
2021/12/11 02:53:19;;;;;;;24.07;10.30;;;9.50;92.20;;;;;;5116811;27;20223;-78
2021/12/11 02:55:54;;;;;;;24.83;9.70;;;9.50;92.20;;;;;;5117424;27;20694;-77
2021/12/11 02:58:25;;;;;;;27.00;9.67;;;9.50;92.20;;;;;;5114487;27;20642;-77
2021/12/11 03:00:58;;;;;;;25.10;9.70;;;9.50;92.20;;;;;;5121380;27;20197;-76
2021/12/11 03:03:31;;;;;;;25.77;10.00;;;9.50;92.20;;;;;;5112254;27;20208;-78
2021/12/11 03:06:05;;;;;;;23.77;9.03;;;9.50;92.10;;;;;;5117167;27;20196;-77
2021/12/11 03:08:36;;;;;;;32.13;9.80;;;9.50;92.10;;;;;;5114366;27;20238;-77
2021/12/11 03:11:08;;;;;;;24.10;9.47;;;9.50;92.20;;;;;;5112838;27;21019;-78
2021/12/11 03:13:38;;;;;;;20.33;9.63;;;9.50;92.10;;;;;;5112248;27;20200;-77
2021/12/11 03:16:08;;;;;;;17.57;9.20;;;9.50;92.00;;;;;;5121515;27;20188;-77
2021/12/11 03:18:37;;;;;;;22.67;9.53;;;9.50;91.90;;;;;;5115211;27;20188;-77
2021/12/11 03:21:06;;;;;;;23.23;8.97;;;9.50;91.90;;;;;;5120863;27;20257;-77
2021/12/11 03:23:36;;;;;;;25.23;9.30;;;9.40;91.80;;;;;;5118996;27;20216;-78
2021/12/11 03:26:04;;;;;;;25.73;9.87;;;9.40;91.80;;;;;;5120680;27;20802;-77
2021/12/11 03:28:33;;;;;;;24.83;8.87;;;9.40;91.80;;;;;;5116640;27;20204;-78
2021/12/11 03:31:04;;;;;;;25.43;10.20;;;9.40;91.90;;;;;;5111717;27;20193;-77
2021/12/11 03:33:37;;;;;;;26.80;9.27;;;9.40;91.90;;;;;;5121946;27;20616;-77
2021/12/11 03:36:08;;;;;;;28.90;9.40;;;9.50;92.00;;;;;;5120236;27;20228;-78
2021/12/11 03:38:40;;;;;;;25.17;9.33;;;9.50;91.90;;;;;;5113986;27;20196;-78
2021/12/11 03:41:09;;;;;;;20.27;9.23;;;9.50;91.80;;;;;;5114180;27;20189;-77
2021/12/11 03:43:38;;;;;;;23.63;8.43;;;9.50;91.80;;;;;;5122014;27;20207;-77
2021/12/11 03:46:10;;;;;;;23.57;9.13;;;9.50;91.90;;;;;;5118281;27;20189;-78
2021/12/11 03:48:44;;;;;;;32.97;9.87;;;9.50;91.80;;;;;;5129399;27;20207;-77
2021/12/11 03:51:17;;;;;;;30.33;8.70;;;9.50;91.80;;;;;;5111796;27;20203;-78
2021/12/11 03:53:46;;;;;;;24.43;8.57;;;9.50;91.80;;;;;;5124485;27;20224;-77
2021/12/11 03:56:18;;;;;;;26.17;8.27;;;9.50;91.80;;;;;;5114716;27;20192;-78
2021/12/11 03:58:50;;;;;;;30.90;8.63;;;9.50;91.90;;;;;;5118597;27;20835;-78
2021/12/11 04:01:24;;;;;;;23.50;9.20;;;9.60;91.90;;;;;;5117276;27;20702;-78
2021/12/11 04:03:57;;;;;;;28.27;8.63;;;9.60;91.90;;;;;;5120699;27;20878;-78
2021/12/11 04:06:26;;;;;;;33.33;8.13;;;9.60;91.90;;;;;;5120188;27;20246;-78
2021/12/11 04:08:57;;;;;;;28.60;9.27;;;9.60;91.80;;;;;;5113328;27;20216;-78
2021/12/11 04:11:28;;;;;;;22.03;9.23;;;9.60;91.80;;;;;;5117108;27;20761;-78
2021/12/11 04:14:03;;;;;;;19.70;8.23;;;9.60;91.70;;;;;;5117080;27;20188;-78
2021/12/11 04:16:31;;;;;;;23.63;8.53;;;9.60;91.60;;;;;;5119960;27;20184;-79
2021/12/11 04:19:00;;;;;;;24.30;8.33;;;9.60;91.60;;;;;;5119780;27;20647;-78
2021/12/11 04:21:29;;;;;;;17.97;7.97;;;9.60;91.50;;;;;;5109827;27;20204;-78
2021/12/11 04:23:58;;;;;;;19.37;8.50;;;9.60;91.60;;;;;;5120426;27;20243;-78
2021/12/11 04:26:27;;;;;;;20.00;8.37;;;9.60;91.60;;;;;;5112743;27;20196;-77
2021/12/11 04:28:55;;;;;;;20.97;8.70;;;9.60;91.60;;;;;;5116743;27;20197;-78
2021/12/11 04:31:26;;;;;;;31.83;9.13;;;9.60;91.60;;;;;;5124645;27;20204;-79
2021/12/11 04:33:57;;;;;;;24.57;8.93;;;9.50;91.60;;;;;;5112827;27;20631;-78
2021/12/11 04:36:29;;;;;;;21.77;8.63;;;9.50;91.70;;;;;;5116210;27;20196;-79
2021/12/11 04:39:00;;;;;;;29.53;8.33;;;9.50;91.70;;;;;;5113281;27;20193;-77
2021/12/11 04:41:38;;;;;;;23.43;9.17;;;9.50;91.70;;;;;;5112697;27;20677;-77
2021/12/11 04:44:10;;;;;;;29.50;9.27;;;9.50;91.80;;;;;;5112630;27;20203;-77
2021/12/11 04:46:39;;;;;;;29.27;8.87;;;9.50;91.80;;;;;;5118662;27;20180;-78
2021/12/11 04:49:13;;;;;;;26.33;8.27;;;9.40;91.70;;;;;;5117580;27;20184;-81
2021/12/11 04:51:47;;;;;;;30.27;8.33;;;9.40;91.80;;;;;;5112292;27;20188;-77
2021/12/11 04:54:35;;;;;;;31.83;7.80;;;9.40;91.80;;;;;;5117502;27;20201;-78
2021/12/11 05:00:07;;;;;;;31.83;7.67;;;9.30;91.90;;;;;;5096644;27;20207;-78
2021/12/11 05:03:13;;;;;;;40.07;7.67;;;9.30;92.00;;;;;;5119532;27;20212;-77
2021/12/11 05:05:54;;;;;;;30.17;7.10;;;9.20;92.00;;;;;;5113117;27;20195;-77
2021/12/11 05:09:01;;;;;;;41.97;7.53;;;9.20;92.10;;;;;;5122372;27;20249;-77
2021/12/11 05:11:37;;;;;;;48.03;9.03;;;9.20;92.20;;;;;;5109485;27;20898;-78
2021/12/11 05:14:10;;;;;;;37.37;8.03;;;9.20;92.20;;;;;;5120672;27;20657;-78
2021/12/11 05:16:39;;;;;;;30.83;7.97;;;9.10;92.30;;;;;;5120720;27;20196;-78
2021/12/11 05:19:08;;;;;;;42.80;8.10;;;9.20;92.30;;;;;;5116090;27;20665;-78
2021/12/11 05:21:36;;;;;;;51.90;9.57;;;9.10;92.30;;;;;;5109113;27;20189;-78
2021/12/11 05:24:06;;;;;;;38.23;8.70;;;9.10;92.40;;;;;;5121529;27;20621;-78
2021/12/11 05:26:37;;;;;;;36.63;8.70;;;9.20;92.50;;;;;;5120128;27;20226;-78
2021/12/11 05:29:06;;;;;;;26.67;7.40;;;9.20;92.50;;;;;;5121900;27;20204;-78
2021/12/11 05:31:35;;;;;;;25.00;8.03;;;9.20;92.50;;;;;;5119317;27;20703;-77
2021/12/11 05:34:05;;;;;;;40.73;8.67;;;9.20;92.40;;;;;;5121299;27;20264;-78
2021/12/11 05:36:37;;;;;;;42.00;7.80;;;9.20;92.40;;;;;;5124907;27;20204;-78
2021/12/11 05:39:12;;;;;;;29.23;8.37;;;9.30;92.40;;;;;;5114300;27;20197;-78
2021/12/11 05:41:43;;;;;;;26.23;7.87;;;9.30;92.40;;;;;;5118064;27;20184;-78
2021/12/11 05:44:13;;;;;;;31.27;8.13;;;9.30;92.30;;;;;;5123075;27;20207;-78
2021/12/11 05:46:41;;;;;;;34.93;8.80;;;9.30;92.30;;;;;;5123092;27;20230;-78
2021/12/11 05:49:11;;;;;;;33.97;8.37;;;9.30;92.20;;;;;;5120764;27;20199;-78
2021/12/11 05:51:44;;;;;;;42.27;9.47;;;9.30;92.20;;;;;;5117038;27;20203;-78
2021/12/11 05:54:15;;;;;;;30.63;8.27;;;9.30;92.20;;;;;;5119238;27;20857;-78
2021/12/11 05:56:46;;;;;;;26.87;8.20;;;9.40;92.20;;;;;;5122316;27;20215;-78
2021/12/11 05:59:17;;;;;;;26.07;6.93;;;9.40;92.30;;;;;;5110536;27;20244;-78
2021/12/11 06:01:47;;;;;;;21.63;7.00;;;9.40;92.30;;;;;;5113254;27;20204;-78
2021/12/11 06:04:20;;;;;;;25.17;6.63;;;9.50;92.30;;;;;;5118658;27;20211;-77
2021/12/11 06:06:49;;;;;;;22.30;7.50;;;9.50;92.20;;;;;;5116229;27;20201;-78
2021/12/11 06:09:20;;;;;;;31.33;7.27;;;9.50;92.20;;;;;;5113266;28;20197;-78
2021/12/11 06:11:51;;;;;;;27.70;7.07;;;9.50;92.20;;;;;;5117766;28;20193;-78
2021/12/11 06:14:21;;;;;;;23.70;7.00;;;9.60;92.20;;;;;;5119101;27;20242;-78
2021/12/11 06:16:53;;;;;;;16.50;6.40;;;9.60;92.20;;;;;;5122554;28;20196;-78
2021/12/11 06:19:22;;;;;;;24.87;7.30;;;9.60;92.20;;;;;;5118893;28;20193;-78
2021/12/11 06:21:51;;;;;;;20.60;6.60;;;9.70;92.10;;;;;;5123563;27;20196;-78
2021/12/11 06:24:21;;;;;;;26.83;6.40;;;9.70;92.10;;;;;;5111151;28;20208;-78
2021/12/11 06:26:52;;;;;;;19.53;6.33;;;9.70;92.00;;;;;;5122773;27;20188;-78
2021/12/11 06:29:20;;;;;;;18.30;6.37;;;9.70;92.00;;;;;;5107753;27;20197;-77
2021/12/11 06:31:49;;;;;;;22.20;6.23;;;9.80;92.10;;;;;;5113927;27;20371;-78
2021/12/11 06:34:18;;;;;;;18.57;6.63;;;9.80;92.00;;;;;;5130087;27;20246;-77
2021/12/11 06:36:47;;;;;;;22.07;6.90;;;9.80;91.90;;;;;;5111181;27;20712;-78
2021/12/11 06:39:19;;;;;;;24.10;6.50;;;9.80;91.90;;;;;;5123855;27;20192;-78
2021/12/11 06:41:57;;;;;;;28.03;7.53;;;9.90;91.90;;;;;;5120970;27;20192;-78
2021/12/11 06:44:28;;;;;;;24.60;7.27;;;10.00;91.90;;;;;;5117016;27;20200;-78
2021/12/11 06:46:58;;;;;;;17.60;7.30;;;10.00;91.80;;;;;;5119228;27;20251;-78
2021/12/11 06:49:27;;;;;;;17.40;6.67;;;10.00;91.80;;;;;;5119140;27;20192;-78
2021/12/11 06:51:56;;;;;;;16.60;6.73;;;10.10;91.80;;;;;;5120285;27;20196;-77
2021/12/11 06:54:25;;;;;;;18.97;7.20;;;10.10;91.70;;;;;;5116045;27;20196;-77
2021/12/11 06:56:56;;;;;;;20.77;7.60;;;10.10;91.70;;;;;;5123581;27;20258;-77
2021/12/11 06:59:24;;;;;;;15.03;7.27;;;10.20;91.70;;;;;;5125357;27;20204;-77
2021/12/11 07:01:52;;;;;;;14.97;7.47;;;10.20;92.00;;;;;;5126262;27;20256;-77
2021/12/11 07:04:21;;;;;;;22.80;7.27;;;10.20;91.50;;;;;;5114218;27;20535;-77
2021/12/11 07:06:52;;;;;;;16.07;7.50;;;10.30;91.50;;;;;;5113375;27;20878;-78
2021/12/11 07:09:23;;;;;;;16.90;7.03;;;10.30;91.40;;;;;;5119812;27;20188;-77
2021/12/11 07:11:53;;;;;;;20.93;7.77;;;10.30;91.20;;;;;;5123527;27;20694;-77
2021/12/11 07:14:30;;;;;;;17.07;7.07;;;10.30;91.10;;;;;;5119493;27;20196;-78
2021/12/11 07:17:00;;;;;;;16.93;7.73;;;10.30;91.20;;;;;;5123960;27;20838;-77
2021/12/11 07:19:29;;;;;;;14.97;7.77;;;10.30;91.00;;;;;;5118491;27;20193;-77
2021/12/11 07:21:57;;;;;;;14.97;6.53;;;10.30;91.00;;;;;;5120225;27;20200;-78
2021/12/11 07:24:30;;;;;;;17.80;7.73;;;10.30;90.70;;;;;;5122108;27;20270;-79
2021/12/11 07:26:59;;;;;;;20.63;10.27;;;10.30;90.80;;;;;;5126579;27;20188;-78
2021/12/11 07:29:30;;;;;;;21.00;9.60;;;10.30;90.80;;;;;;5109503;27;20820;-77
2021/12/11 07:31:59;;;;;;;20.77;10.43;;;10.30;90.90;;;;;;5122988;27;20215;-78
2021/12/11 07:34:28;;;;;;;23.10;11.40;;;10.30;90.80;;;;;;5129342;27;20223;-80
2021/12/11 07:36:56;;;;;;;25.77;12.37;;;10.30;91.10;;;;;;5118432;27;20924;-79
2021/12/11 07:39:25;;;;;;;22.63;11.50;;;10.30;90.80;;;;;;5118209;27;20197;-77
2021/12/11 07:41:55;;;;;;;26.60;13.13;;;10.30;90.80;;;;;;5123034;27;20195;-77
2021/12/11 07:44:24;;;;;;;23.87;11.10;;;10.40;90.80;;;;;;5125769;27;20216;-76
2021/12/11 07:46:57;;;;;;;27.43;11.73;;;10.40;90.90;;;;;;5119089;27;20721;-77
2021/12/11 07:49:26;;;;;;;19.27;9.40;;;10.40;91.00;;;;;;5125209;27;20287;-77
2021/12/11 07:51:54;;;;;;;21.87;11.13;;;10.40;91.00;;;;;;5116088;27;20196;-77
2021/12/11 07:54:23;;;;;;;22.20;10.70;;;10.40;90.90;;;;;;5118429;27;20242;-76
2021/12/11 07:56:53;;;;;;;24.07;10.57;;;10.40;90.90;;;;;;5126073;27;20185;-78
2021/12/11 07:59:22;;;;;;;19.60;10.50;;;10.40;90.90;;;;;;5115562;27;20197;-76
2021/12/11 08:01:53;;;;;;;18.10;9.07;;;10.40;90.80;;;;;;5119610;27;20635;-78
2021/12/11 08:04:24;;;;;;;20.83;10.47;;;10.30;90.70;;;;;;5113156;27;20213;-79
2021/12/11 08:06:53;;;;;;;26.73;9.70;;;10.30;90.70;;;;;;5117793;27;20185;-77
2021/12/11 08:09:26;;;;;;;19.90;9.27;;;10.30;90.80;;;;;;5119179;27;20226;-78
2021/12/11 08:11:54;;;;;;;17.73;7.87;;;10.30;90.80;;;;;;5126373;27;20200;-78
2021/12/11 08:14:24;;;;;;;17.47;8.87;;;10.30;90.80;;;;;;5120500;27;20634;-77
2021/12/11 08:16:56;;;;;;;18.77;8.47;;;10.30;90.80;;;;;;5119501;27;20196;-79
2021/12/11 08:19:28;;;;;;;17.33;8.93;;;10.30;90.70;;;;;;5121546;27;20197;-78
2021/12/11 08:22:00;;;;;;;23.73;10.90;;;10.30;90.70;;;;;;5112727;27;20196;-79
2021/12/11 08:24:29;;;;;;;20.10;9.83;;;10.20;90.70;;;;;;5122045;27;20257;-78
2021/12/11 08:27:00;;;;;;;23.23;9.80;;;10.30;90.80;;;;;;5127087;27;20204;-77
2021/12/11 08:29:29;;;;;;;20.60;10.13;;;10.30;90.90;;;;;;5128344;27;20191;-78
2021/12/11 08:31:59;;;;;;;21.87;11.00;;;10.40;90.90;;;;;;5113665;27;20193;-78
2021/12/11 08:34:30;;;;;;;26.77;11.90;;;10.40;91.00;;;;;;5124581;27;20668;-78
2021/12/11 08:36:59;;;;;;;25.33;10.67;;;10.40;90.90;;;;;;5120009;27;20196;-79
2021/12/11 08:39:28;;;;;;;27.57;12.30;;;10.40;90.90;;;;;;5112501;27;20204;-77
2021/12/11 08:41:58;;;;;;;23.83;10.80;;;10.40;91.00;;;;;;5124007;27;20197;-78
2021/12/11 08:44:28;;;;;;;22.43;10.47;;;10.40;91.00;;;;;;5127215;27;20200;-78
2021/12/11 08:47:00;;;;;;;23.50;10.40;;;10.40;91.10;;;;;;5120423;27;20200;-77
2021/12/11 08:49:32;;;;;;;22.93;10.23;;;10.40;91.20;;;;;;5119298;27;20223;-77
2021/12/11 08:52:05;;;;;;;22.80;9.40;;;10.40;91.30;;;;;;5121395;27;20196;-78
2021/12/11 08:54:35;;;;;;;24.40;10.73;;;10.40;91.30;;;;;;5107733;27;20646;-80
2021/12/11 08:57:08;;;;;;;28.00;10.50;;;10.40;91.40;;;;;;5121812;27;20180;-78
2021/12/11 08:59:39;;;;;;;22.00;9.73;;;10.40;91.30;;;;;;5125843;27;20193;-79
2021/12/11 09:02:13;;;;;;;19.37;9.27;;;10.40;91.30;;;;;;5116194;27;20750;-77
2021/12/11 09:04:47;;;;;;;21.43;9.30;;;10.40;91.20;;;;;;5121552;27;20200;-77
2021/12/11 09:07:19;;;;;;;18.47;9.20;;;10.50;91.20;;;;;;5119144;27;20635;-77
2021/12/11 09:09:52;;;;;;;20.73;9.77;;;10.50;91.10;;;;;;5108696;27;20193;-77
2021/12/11 09:12:25;;;;;;;19.60;9.03;;;10.50;91.10;;;;;;5115559;27;20832;-78
2021/12/11 09:15:02;;;;;;;19.47;9.07;;;10.50;91.00;;;;;;5122340;27;20197;-78
2021/12/11 09:17:36;;;;;;;19.80;9.57;;;10.50;91.10;;;;;;5117561;27;20200;-78
2021/12/11 09:20:12;;;;;;;23.67;10.73;;;10.60;91.10;;;;;;5120639;27;20192;-77
2021/12/11 09:22:44;;;;;;;24.47;10.87;;;10.50;91.20;;;;;;5112690;27;20199;-78
2021/12/11 09:25:17;;;;;;;21.07;9.63;;;10.60;91.30;;;;;;5118984;27;20308;-77
2021/12/11 09:27:49;;;;;;;21.50;10.47;;;10.60;91.40;;;;;;5114006;27;20199;-77
2021/12/11 09:30:22;;;;;;;24.47;11.53;;;10.60;91.50;;;;;;5113609;27;20193;-77
2021/12/11 09:32:54;;;;;;;25.20;11.30;;;10.70;91.60;;;;;;5116587;27;20200;-78
2021/12/11 09:35:29;;;;;;;22.17;11.37;;;10.80;91.70;;;;;;5113731;27;20238;-77
2021/12/11 09:38:03;;;;;;;23.80;12.17;;;10.80;91.60;;;;;;5111033;27;20198;-77
2021/12/11 09:40:55;;;;;;;25.27;12.20;;;10.90;91.60;;;;;;5116339;27;20196;-77
2021/12/11 09:43:36;;;;;;;23.10;10.93;;;10.90;91.40;;;;;;5113732;27;20196;-78
2021/12/11 09:46:07;;;;;;;26.07;11.77;;;11.00;91.80;;;;;;5123488;27;20596;-77
2021/12/11 09:48:39;;;;;;;29.83;12.87;;;11.10;91.50;;;;;;5111651;27;20196;-77
2021/12/11 09:51:12;;;;;;;25.17;12.50;;;11.20;91.40;;;;;;5116081;27;20204;-78
2021/12/11 09:53:49;;;;;;;22.40;10.60;;;11.40;91.30;;;;;;5109711;27;20212;-78
2021/12/11 09:56:20;;;;;;;22.47;10.63;;;11.40;91.00;;;;;;5128979;27;20236;-77
2021/12/11 09:58:51;;;;;;;24.47;10.83;;;11.50;90.90;;;;;;5115368;27;20177;-78
2021/12/11 10:01:22;;;;;;;22.67;10.10;;;11.50;90.90;;;;;;5117328;27;20188;-76
2021/12/11 10:03:55;;;;;;;20.77;10.20;;;11.60;90.90;;;;;;5113634;27;20554;-76
2021/12/11 10:06:41;;;;;;;22.73;11.13;;;11.70;90.70;;;;;;5113430;27;20212;-77
2021/12/11 10:09:21;;;;;;;20.87;10.37;;;11.90;90.80;;;;;;5119630;28;20196;-77
2021/12/11 10:12:02;;;;;;;19.83;10.20;;;12.00;90.80;;;;;;5116011;27;20192;-76
2021/12/11 10:14:36;;;;;;;20.70;9.93;;;12.10;90.50;;;;;;5111449;27;20184;-77
2021/12/11 10:17:09;;;;;;;22.13;9.60;;;12.10;90.20;;;;;;5110380;27;20185;-76
2021/12/11 10:19:38;;;;;;;19.33;9.17;;;12.20;90.20;;;;;;5118185;27;20195;-76
2021/12/11 10:22:13;;;;;;;19.70;9.03;;;12.30;90.20;;;;;;5108975;27;20197;-76
2021/12/11 10:24:42;;;;;;;21.50;10.73;;;12.30;89.80;;;;;;5109428;27;20649;-76
2021/12/11 10:27:15;;;;;;;22.23;10.10;;;12.40;89.60;;;;;;5118435;27;20209;-76
2021/12/11 10:29:45;;;;;;;20.17;10.10;;;12.50;89.80;;;;;;5106062;27;20181;-76
2021/12/11 10:32:16;;;;;;;20.33;10.40;;;12.50;89.40;;;;;;5121079;27;20192;-76
2021/12/11 10:34:49;;;;;;;19.03;9.50;;;12.50;89.40;;;;;;5114249;27;20220;-75
2021/12/11 10:37:21;;;;;;;19.37;9.80;;;12.60;89.40;;;;;;5123192;27;20183;-76
2021/12/11 10:39:53;;;;;;;19.13;10.33;;;12.70;89.50;;;;;;5118969;27;20181;-78
2021/12/11 10:42:21;;;;;;;18.37;9.73;;;12.70;89.20;;;;;;5115479;27;20188;-77
2021/12/11 10:44:55;;;;;;;20.07;10.07;;;12.80;89.00;;;;;;5111969;27;20199;-78
2021/12/11 10:47:25;;;;;;;22.40;12.50;;;12.90;88.60;;;;;;5127839;27;20587;-78
2021/12/11 10:50:17;;;;;;;22.33;11.43;;;13.00;88.60;;;;;;5111150;28;20188;-77
2021/12/11 10:52:46;;;;;;;19.27;9.60;;;13.10;88.40;;;;;;5109355;27;20590;-76
2021/12/11 10:55:17;;;;;;;21.37;10.63;;;13.20;87.90;;;;;;5118644;27;20189;-77
2021/12/11 10:57:46;;;;;;;19.53;10.90;;;13.40;87.40;;;;;;5111985;27;20201;-77
2021/12/11 11:00:28;;;;;;;20.50;11.03;;;13.50;87.60;;;;;;5113154;27;20703;-77
2021/12/11 11:03:00;;;;;;;19.80;10.17;;;13.60;86.70;;;;;;5118639;28;20657;-76
2021/12/11 11:05:32;;;;;;;18.07;9.77;;;13.70;86.40;;;;;;5111729;27;20195;-76
2021/12/11 11:08:02;;;;;;;16.50;9.60;;;13.80;86.30;;;;;;5108358;27;20199;-76
2021/12/11 11:10:36;;;;;;;14.07;8.60;;;13.80;86.10;;;;;;5118693;27;20195;-78
2021/12/11 11:13:09;;;;;;;18.73;8.93;;;13.90;85.10;;;;;;5123729;27;20181;-76
2021/12/11 11:15:43;;;;;;;20.13;9.50;;;13.90;84.80;;;;;;5122484;27;20181;-76
2021/12/11 11:18:15;;;;;;;14.73;8.47;;;13.90;84.20;;;;;;5118584;27;20192;-76
2021/12/11 11:20:48;;;;;;;19.40;9.90;;;13.90;83.90;;;;;;5111596;27;20185;-76
2021/12/11 11:23:17;;;;;;;19.00;9.97;;;13.80;83.20;;;;;;5115468;27;20185;-76
2021/12/11 11:25:51;;;;;;;21.07;10.40;;;13.90;83.80;;;;;;5114739;27;20193;-75
2021/12/11 11:28:26;;;;;;;19.23;9.90;;;13.90;83.30;;;;;;5125782;27;20192;-76
2021/12/11 11:31:00;;;;;;;18.07;10.23;;;13.90;83.60;;;;;;5129700;27;20187;-76
2021/12/11 11:33:29;;;;;;;18.17;9.37;;;13.90;83.60;;;;;;5126130;27;20893;-76
2021/12/11 11:36:00;;;;;;;20.23;9.27;;;13.90;83.90;;;;;;5116889;27;20636;-77
2021/12/11 11:38:32;;;;;;;17.80;9.27;;;13.90;83.10;;;;;;5123702;27;20205;-76
2021/12/11 11:41:04;;;;;;;18.93;9.50;;;13.90;83.30;;;;;;5130862;27;20815;-77
2021/12/11 11:43:33;;;;;;;17.93;9.57;;;13.80;83.10;;;;;;5117919;27;20185;-75
2021/12/11 11:46:04;;;;;;;14.07;7.90;;;13.80;83.10;;;;;;5118807;27;20649;-76
2021/12/11 11:48:35;;;;;;;19.13;8.83;;;13.70;82.80;;;;;;5116281;27;20692;-75
2021/12/11 11:51:19;;;;;;;15.03;8.43;;;13.70;82.90;;;;;;5107616;27;20310;-75
2021/12/11 11:53:48;;;;;;;15.87;8.43;;;13.70;83.30;;;;;;5111706;27;20224;-76
2021/12/11 11:56:20;;;;;;;14.60;8.03;;;13.70;83.00;;;;;;5107086;27;20193;-77
2021/12/11 11:58:49;;;;;;;16.30;8.17;;;13.70;83.00;;;;;;5132194;27;20757;-76
2021/12/11 12:01:22;;;;;;;13.97;7.23;;;13.70;83.20;;;;;;5127336;27;20197;-76
2021/12/11 12:03:52;;;;;;;17.40;8.57;;;13.70;83.20;;;;;;5126174;27;20195;-75
2021/12/11 12:06:25;;;;;;;14.50;8.17;;;13.70;82.90;;;;;;5107709;27;20216;-76
2021/12/11 12:08:55;;;;;;;15.13;8.27;;;13.70;82.90;;;;;;5117945;27;20188;-76
2021/12/11 12:11:27;;;;;;;15.93;7.73;;;13.70;83.20;;;;;;5126228;27;20180;-75
2021/12/11 12:13:55;;;;;;;17.53;8.40;;;13.70;82.90;;;;;;5127771;27;20196;-75
2021/12/11 12:16:31;;;;;;;15.63;8.80;;;13.70;82.90;;;;;;5113331;27;20958;-75
2021/12/11 12:19:00;;;;;;;15.10;8.07;;;13.60;83.10;;;;;;5109898;27;20189;-76
2021/12/11 12:21:29;;;;;;;13.60;7.07;;;13.60;83.20;;;;;;5121228;27;20188;-74
2021/12/11 12:23:58;;;;;;;12.70;7.73;;;13.50;83.30;;;;;;5129999;27;20207;-74
2021/12/11 12:26:29;;;;;;;19.10;8.93;;;13.50;83.40;;;;;;5121700;27;20249;-75
2021/12/11 12:28:59;;;;;;;15.37;8.87;;;13.50;83.60;;;;;;5124944;27;20184;-74
2021/12/11 12:31:33;;;;;;;17.67;8.50;;;13.50;83.60;;;;;;5113105;27;20201;-75
2021/12/11 12:34:03;;;;;;;18.00;8.63;;;13.50;83.60;;;;;;5116529;27;20187;-76
2021/12/11 12:36:32;;;;;;;18.03;8.77;;;13.50;83.80;;;;;;5114990;27;20187;-77
2021/12/11 12:39:00;;;;;;;17.80;9.23;;;13.40;83.90;;;;;;5122221;27;20191;-75
2021/12/11 12:41:35;;;;;;;19.00;10.03;;;13.40;84.10;;;;;;5122266;27;20200;-75
2021/12/11 12:44:17;;;;;;;15.37;8.47;;;13.40;84.30;;;;;;5116863;27;20242;-75
2021/12/11 12:47:09;;;;;;;19.13;10.53;;;13.40;84.60;;;;;;5115741;27;20240;-74
2021/12/11 12:49:40;;;;;;;17.23;10.43;;;13.30;84.70;;;;;;5123397;27;20207;-75
2021/12/11 12:52:13;;;;;;;16.57;9.33;;;13.30;84.90;;;;;;5115764;27;20193;-78
2021/12/11 12:54:41;;;;;;;16.40;9.57;;;13.30;85.20;;;;;;5119014;27;20215;-77
2021/12/11 12:57:16;;;;;;;17.37;9.47;;;13.30;85.30;;;;;;5122501;27;20188;-75
2021/12/11 12:59:53;;;;;;;20.13;10.87;;;13.20;85.30;;;;;;5109537;27;20187;-76
2021/12/11 13:02:26;;;;;;;17.13;9.60;;;13.10;85.60;;;;;;5111372;27;20185;-75
2021/12/11 13:04:59;;;;;;;17.03;10.07;;;13.10;85.90;;;;;;5124035;27;20245;-75